Lake Montezuma, Arizona
Current Conditions -  °F | °C
As of 2:35 AM on Monday 20 Oct 2014 (Local Time) from KSEZ Reporting Station
Clear Clear  
Wind Chill: 57°   Ceiling: Unl
Heat Index: 57°   Visibility: 10mi
Dew Point: 41°   Wind: 12mph
Humidity: 55%   Direction: 70°ENE
Pressure: 30.06"   Gusts: 18mph
Location:  34.64°N, 111.8°W
Report Text: KSEZ 200935Z AUTO 07010G16KT 10SM CLR 14/05 A3006 RMK AO2
Loading
Personal Weather Stations






























Interactive Weather Map
Tropical Storm Tracking
New forecast layout! Learn more

10-Day Weather Forecast

Advertisements
Track Severe Weather on mobile